| time (UTC) | temp F | wind direction | speed MPH | gust MPH | rain 1hr in | rain 24hr in | rain mn in | humidity % | barometer mb |
| 20260507120439 | 56 | 25 | 0.0 | 0.0 | 0.00 | 0.01 | 0.00 | 87 | 1012.7 |
| 20260507113309 | 56 | 25 | 0.0 | 0.0 | 0.00 | 0.01 | 0.00 | 92 | 1012.3 |
| 20260507100039 | 56 | 25 | 0.0 | 0.0 | 0.00 | 0.01 | 0.00 | 94 | 1011.6 |
| 20260507095354 | 56 | 25 | 0.0 | 0.0 | 0.00 | 0.01 | 0.00 | 94 | 1011.7 |
| 20260507095039 | 56 | 25 | 0.0 | 0.0 | 0.00 | 0.01 | 0.00 | 94 | 1011.7 |
| 20260507094009 | 56 | 25 | 0.0 | 0.0 | 0.00 | 0.01 | 0.00 | 94 | 1011.7 |
| 20260507093016 | 56 | 25 | 0.0 | 0.0 | 0.00 | 0.01 | 0.00 | 94 | 1011.6 |
| 20260507092939 | 56 | 25 | 0.0 | 0.0 | 0.00 | 0.01 | 0.00 | 94 | 1011.6 |
| 20260507090909 | 56 | 25 | 0.0 | 0.0 | 0.00 | 0.01 | 0.00 | 94 | 1011.5 |
| 20260507081739 | 57 | 25 | 0.0 | 0.0 | 0.00 | 0.01 | 0.00 | 94 | 1011.3 |
| 20260507080739 | 57 | 25 | 0.0 | 0.0 | 0.00 | 0.01 | 0.00 | 94 | 1010.9 |
| 20260507075709 | 57 | 25 | 0.0 | 0.0 | 0.00 | 0.01 | 0.00 | 94 | 1010.7 |
| 20260507071509 | 57 | 40 | 0.0 | 0.0 | 0.00 | 0.01 | 0.00 | 94 | 1010.5 |
| 20260507070509 | 57 | 328 | 0.0 | 0.0 | 0.00 | 0.01 | 0.00 | 94 | 1010.4 |
| 20260507065439 | 57 | 328 | 0.0 | 0.0 | 0.00 | 0.01 | 0.00 | 95 | 1010.6 |
| 20260507064439 | 58 | 24 | 0.0 | 0.0 | 0.00 | 0.01 | 0.00 | 95 | 1010.4 |
| 20260507063409 | 58 | 342 | 0.0 | 0.0 | 0.00 | 0.01 | 0.00 | 94 | 1010.3 |
| 20260507060239 | 58 | 350 | 0.0 | 0.0 | 0.00 | 0.01 | 0.00 | 94 | 1010.4 |
| 20260507055209 | 58 | 333 | 0.0 | 0.0 | 0.00 | 0.01 | 0.00 | 93 | 1010.2 |
| 20260507050109 | 60 | 51 | 0.0 | 1.0 | 0.00 | 0.01 | 0.00 | 91 | 1010.5 |
| 20260507045109 | 60 | 30 | 1.0 | 3.0 | 0.00 | 0.01 | 0.00 | 90 | 1010.5 |
| 20260507043009 | 63 | 68 | 0.0 | 0.0 | 0.00 | 0.01 | 0.00 | 83 | 1010.7 |
| 20260507040939 | 64 | 68 | 0.0 | 0.0 | 0.00 | 0.01 | 0.00 | 78 | 1010.4 |
| 20260507034909 | 64 | 41 | 0.0 | 0.0 | 0.00 | 0.01 | 0.01 | 77 | 1010.2 |
| 20260507033909 | 65 | 18 | 0.0 | 2.0 | 0.00 | 0.01 | 0.01 | 76 | 1010.3 |
| 20260507032945 | 65 | 5 | 1.0 | 5.0 | 0.00 | 0.01 | 0.01 | 76 | 1010.1 |
| 20260507032909 | 65 | 5 | 1.0 | 5.0 | 0.00 | 0.01 | 0.01 | 76 | 1010.1 |
| 20260507032158 | 65 | 89 | 0.0 | 0.0 | 0.00 | 0.01 | 0.01 | 76 | 1009.9 |
| 20260507031839 | 65 | 89 | 0.0 | 0.0 | 0.00 | 0.01 | 0.01 | 76 | 1009.9 |
| 20260507025739 | 66 | 48 | 1.0 | 3.0 | 0.00 | 0.01 | 0.01 | 77 | 1009.5 |
| 20260507024709 | 66 | 15 | 1.0 | 2.0 | 0.00 | 0.01 | 0.01 | 80 | 1009.7 |
| 20260507023639 | 67 | 20 | 0.0 | 0.0 | 0.00 | 0.01 | 0.01 | 82 | 1009.5 |
| 20260507022609 | 67 | 42 | 1.0 | 2.0 | 0.00 | 0.01 | 0.01 | 84 | 1009.2 |
| 20260507021539 | 68 | 68 | 0.0 | 0.0 | 0.00 | 0.01 | 0.01 | 85 | 1009.0 |
| 20260507020539 | 68 | 22 | 0.0 | 2.0 | 0.00 | 0.01 | 0.01 | 86 | 1008.9 |
| 20260507013729 | 68 | 217 | 0.0 | 0.0 | 0.00 | 0.01 | 0.01 | 86 | 1008.9 |
| 20260507013509 | 68 | 217 | 0.0 | 0.0 | 0.00 | 0.01 | 0.01 | 86 | 1008.9 |
| 20260507011324 | 68 | 217 | 0.0 | 0.0 | 0.00 | 0.01 | 0.01 | 85 | 1009.3 |
| 20260507010439 | 68 | 217 | 0.0 | 0.0 | 0.00 | 0.01 | 0.01 | 85 | 1009.3 |
| 20260507004409 | 69 | 217 | 0.0 | 0.0 | 0.00 | 0.01 | 0.01 | 83 | 1009.0 |
| 20260507003339 | 69 | 217 | 0.0 | 0.0 | 0.00 | 0.01 | 0.01 | 82 | 1009.0 |
| 20260507002309 | 69 | 217 | 0.0 | 0.0 | 0.00 | 0.01 | 0.01 | 81 | 1009.0 |
| 20260506235209 | 70 | 217 | 0.0 | 0.0 | 0.00 | 0.01 | 0.01 | 79 | 1008.6 |
| 20260506231109 | 70 | 220 | 0.0 | 2.0 | 0.00 | 0.01 | 0.01 | 78 | 1008.0 |
| 20260506230521 | 70 | 221 | 3.0 | 5.0 | 0.00 | 0.01 | 0.01 | 77 | 1008.1 |
| 20260506230109 | 70 | 221 | 3.0 | 5.0 | 0.00 | 0.01 | 0.01 | 77 | 1008.1 |
| 20260506225108 | 71 | 126 | 0.0 | 2.0 | 0.00 | 0.01 | 0.01 | 77 | 1007.9 |
| 20260506215939 | 70 | 235 | 3.0 | 7.0 | 0.00 | 0.01 | 0.01 | 77 | 1008.0 |
| 20260506214908 | 71 | 252 | 3.0 | 6.0 | 0.00 | 0.01 | 0.01 | 76 | 1008.1 |
| 20260506213839 | 71 | 178 | 0.0 | 5.0 | 0.00 | 0.01 | 0.01 | 76 | 1008.1 |
| 20260506210738 | 71 | 200 | 0.0 | 0.0 | 0.00 | 0.01 | 0.01 | 78 | 1007.9 |
| 20260506210007 | 71 | 229 | 5.0 | 9.0 | 0.00 | 0.01 | 0.01 | 76 | 1007.7 |
| 20260506205738 | 71 | 229 | 5.0 | 9.0 | 0.00 | 0.01 | 0.01 | 76 | 1007.7 |
| 20260506203709 | 70 | 233 | 6.0 | 9.0 | 0.00 | 0.01 | 0.01 | 76 | 1007.5 |
| 20260506202638 | 70 | 253 | 2.0 | 7.0 | 0.00 | 0.01 | 0.01 | 77 | 1007.6 |
| 20260506200836 | 70 | 230 | 2.0 | 7.0 | 0.00 | 0.01 | 0.01 | 79 | 1007.8 |
| 20260506200608 | 70 | 230 | 2.0 | 7.0 | 0.00 | 0.01 | 0.01 | 79 | 1007.8 |
| 20260506195539 | 70 | 224 | 2.0 | 5.0 | 0.00 | 0.01 | 0.01 | 79 | 1007.8 |
| 20260506194509 | 69 | 200 | 3.0 | 9.0 | 0.00 | 0.01 | 0.01 | 79 | 1007.9 |
| 20260506194155 | 69 | 202 | 3.0 | 8.0 | 0.00 | 0.01 | 0.01 | 80 | 1007.8 |
| 20260506193509 | 69 | 202 | 3.0 | 8.0 | 0.00 | 0.01 | 0.01 | 80 | 1007.8 |
| 20260506192440 | 69 | 215 | 3.0 | 7.0 | 0.00 | 0.01 | 0.01 | 81 | 1007.8 |
| 20260506191408 | 68 | 166 | 2.0 | 10.0 | 0.00 | 0.01 | 0.01 | 81 | 1008.0 |
| 20260506190408 | 68 | 196 | 2.0 | 9.0 | 0.00 | 0.01 | 0.01 | 81 | 1008.3 |
| 20260506185338 | 68 | 203 | 3.0 | 5.0 | 0.00 | 0.01 | 0.01 | 80 | 1008.3 |
| 20260506184309 | 68 | 224 | 2.0 | 6.0 | 0.00 | 0.01 | 0.01 | 80 | 1008.4 |
| 20260506182209 | 68 | 227 | 5.0 | 9.0 | 0.00 | 0.01 | 0.01 | 80 | 1008.5 |
| 20260506175139 | 67 | 171 | 0.0 | 0.0 | 0.00 | 0.01 | 0.01 | 83 | 1008.8 |
| 20260506173039 | 66 | 263 | 1.0 | 3.0 | 0.00 | 0.01 | 0.01 | 86 | 1008.9 |
| 20260506170938 | 65 | 231 | 7.0 | 9.0 | 0.00 | 0.01 | 0.01 | 87 | 1009.0 |
| 20260506165908 | 65 | 238 | 5.0 | 8.0 | 0.00 | 0.01 | 0.01 | 89 | 1009.2 |
| 20260506163839 | 64 | 245 | 3.0 | 6.0 | 0.00 | 0.01 | 0.01 | 93 | 1009.4 |
| 20260506155638 | 63 | 220 | 2.0 | 8.0 | 0.00 | 0.01 | 0.01 | 96 | 1009.5 |
| 20260506154946 | 63 | 204 | 0.0 | 7.0 | 0.00 | 0.01 | 0.01 | 96 | 1009.7 |
| 20260506154609 | 63 | 204 | 0.0 | 7.0 | 0.00 | 0.01 | 0.01 | 96 | 1009.7 |
| 20260506153539 | 63 | 191 | 1.0 | 7.0 | 0.00 | 0.01 | 0.01 | 96 | 1009.8 |
| 20260506151739 | 62 | 188 | 0.0 | 5.0 | 0.00 | 0.01 | 0.01 | 96 | 1009.7 |
| 20260506151509 | 62 | 188 | 0.0 | 5.0 | 0.00 | 0.01 | 0.01 | 96 | 1009.7 |
| 20260506145438 | 62 | 187 | 1.0 | 6.0 | 0.00 | 0.01 | 0.01 | 96 | 1010.2 |
| 20260506144438 | 62 | 219 | 1.0 | 2.0 | 0.00 | 0.01 | 0.01 | 95 | 1010.4 |
| 20260506143408 | 62 | 180 | 0.0 | 3.0 | 0.00 | 0.01 | 0.01 | 95 | 1010.3 |
| 20260506140338 | 62 | 247 | 0.0 | 0.0 | 0.00 | 0.01 | 0.01 | 94 | 1010.2 |
| 20260506135309 | 63 | 247 | 0.0 | 0.0 | 0.00 | 0.01 | 0.01 | 94 | 1010.3 |
| 20260506134509 | 63 | 216 | 0.0 | 0.0 | 0.00 | 0.01 | 0.01 | 93 | 1010.5 |
| 20260506134238 | 63 | 216 | 0.0 | 0.0 | 0.00 | 0.01 | 0.01 | 93 | 1010.5 |
| 20260506132208 | 63 | 241 | 1.0 | 3.0 | 0.00 | 0.01 | 0.01 | 90 | 1010.7 |
| 20260506125109 | 64 | 169 | 0.0 | 0.0 | 0.01 | 0.01 | 0.01 | 88 | 1010.2 |
| 20260506122038 | 64 | 193 | 0.0 | 2.0 | 0.01 | 0.01 | 0.01 | 85 | 1010.1 |